Time;durP1;ratioP1;P1;durP2;ratioP2;P2;SDS_P1;SDS_P2;PMS_P1;PMS_P2;Temp;Humidity;BMP_temperature;BMP_pressure;BME280_temperature;BME280_humidity;BME280_pressure;Samples;Min_cycle;Max_cycle;Signal;HPM_P1;HPM_P2
2023/08/08 00:11:21;;;;;;;4.60;2.43;;;;;;;28.53;62.79;99650.34;31647639;28;20125;-73
2023/08/08 00:26:23;;;;;;;5.67;2.67;;;;;;;28.31;62.89;99662.16;31642252;28;20135;-73
2023/08/08 00:41:25;;;;;;;4.43;2.93;;;;;;;28.08;64.74;99667.63;31647293;28;20059;-74
2023/08/08 00:56:27;;;;;;;5.78;3.50;;;;;;;27.82;65.42;99668.59;31650161;28;20583;-75
2023/08/08 01:11:32;;;;;;;7.77;3.47;;;;;;;27.88;66.04;99682.34;31647466;28;20047;-74
2023/08/08 01:26:34;;;;;;;8.02;4.43;;;;;;;27.68;67.71;99689.47;31629036;28;20464;-73
2023/08/08 01:41:38;;;;;;;7.60;3.87;;;;;;;27.53;70.16;99712.41;31621104;28;20052;-74
2023/08/08 01:56:40;;;;;;;5.10;3.00;;;;;;;27.47;71.95;99712.53;31623912;28;20135;-74
2023/08/08 02:11:42;;;;;;;3.97;2.67;;;;;;;27.28;74.79;99734.28;31621198;28;20071;-74
2023/08/08 02:26:44;;;;;;;4.63;2.73;;;;;;;27.28;76.92;99739.88;31635225;28;20097;-74
2023/08/08 02:41:46;;;;;;;4.07;2.53;;;;;;;27.38;77.34;99754.09;31614898;28;20044;-73
2023/08/08 02:56:48;;;;;;;4.13;2.60;;;;;;;27.31;78.57;99749.94;31623582;28;20036;-73
2023/08/08 03:11:50;;;;;;;7.57;2.80;;;;;;;27.05;83.24;99758.38;31627689;28;20786;-71
2023/08/08 03:26:52;;;;;;;23.27;3.47;;;;;;;27.21;84.80;99762.81;31649474;28;20044;-74
2023/08/08 03:41:54;;;;;;;14.50;3.13;;;;;;;27.73;83.39;99775.03;31618757;28;20190;-74
2023/08/08 03:56:56;;;;;;;13.10;3.00;;;;;;;27.77;83.31;99789.38;31619991;28;20044;-72
2023/08/08 04:12:01;;;;;;;9.60;3.60;;;;;;;28.36;83.09;99798.00;31627234;28;20503;-73
2023/08/08 04:27:03;;;;;;;;;;;;;;;28.59;82.14;99810.03;31644593;28;20048;-74
2023/08/08 04:42:06;;;;;;;6.38;3.28;;;;;;;29.00;81.14;99825.91;31652866;28;19924;-77
2023/08/08 04:57:08;;;;;;;3.50;2.33;;;;;;;29.96;75.75;99837.66;31648843;28;20070;-74
2023/08/08 05:12:10;;;;;;;3.03;1.70;;;;;;;30.58;70.31;99842.66;31628363;28;20055;-75
2023/08/08 05:27:12;;;;;;;5.93;1.50;;;;;;;31.32;65.80;99859.03;31637404;28;20806;-75
2023/08/08 05:42:14;;;;;;;4.88;1.85;;;;;;;31.84;62.37;99851.63;31644960;28;20079;-73
2023/08/08 05:57:16;;;;;;;5.60;2.05;;;;;;;32.23;60.27;99859.72;31638317;28;20066;-73
2023/08/08 06:12:18;;;;;;;2.92;1.95;;;;;;;32.43;57.30;99859.34;31652075;28;20143;-75
2023/08/08 06:27:20;;;;;;;8.55;2.70;;;;;;;32.98;56.23;99863.81;31628552;28;20059;-74
2023/08/08 06:42:22;;;;;;;5.45;2.03;;;;;;;33.53;54.46;99863.31;31624023;28;20151;-75
2023/08/08 06:57:24;;;;;;;3.67;1.48;;;;;;;33.53;53.22;99852.06;31649118;28;20048;-74
2023/08/08 07:12:26;;;;;;;1.73;1.30;;;;;;;34.22;51.38;99856.59;31647830;28;20195;-74
2023/08/08 07:27:28;;;;;;;6.70;1.55;;;;;;;34.69;50.42;99860.81;31637618;28;20131;-73
2023/08/08 07:42:30;;;;;;;2.15;1.30;;;;;;;35.25;49.64;99860.59;31612184;28;20487;-74
2023/08/08 07:57:35;;;;;;;4.47;1.60;;;;;;;35.98;47.55;99860.09;31637674;28;20063;-73
2023/08/08 08:12:41;;;;;;;7.22;1.77;;;;;;;36.26;45.95;99854.91;31649039;28;20051;-76
2023/08/08 08:27:43;;;;;;;4.82;1.63;;;;;;;36.93;44.66;99856.47;31640084;28;20051;-75
2023/08/08 08:42:46;;;;;;;2.05;1.20;;;;;;;37.09;43.90;99846.91;31641992;28;20058;-73
2023/08/08 08:57:50;;;;;;;3.95;1.75;;;;;;;37.73;42.80;99837.44;31632996;28;20040;-74
2023/08/08 09:12:53;;;;;;;2.67;2.17;;;;;;;38.16;41.68;99838.63;31648319;28;20058;-73
2023/08/08 09:27:55;;;;;;;2.78;1.60;;;;;;;38.33;40.17;99833.91;31623711;28;20460;-75
2023/08/08 09:42:58;;;;;;;3.70;1.60;;;;;;;39.26;40.36;99842.00;31636093;28;20056;-73
2023/08/08 09:58:02;;;;;;;7.45;2.03;;;;;;;38.86;39.04;99837.66;31636903;28;20039;-74
2023/08/08 10:13:05;;;;;;;7.70;1.58;;;;;;;38.63;39.62;99838.50;31622275;28;20086;-74
2023/08/08 10:28:13;;;;;;;18.02;2.40;;;;;;;39.14;39.09;99825.06;31629188;28;20075;-75
2023/08/08 10:43:29;;;;;;;4.28;1.83;;;;;;;39.43;39.41;99818.81;31645056;28;20520;-74
2023/08/08 10:58:39;;;;;;;2.58;1.83;;;;;;;40.22;37.41;99794.50;31645690;28;20047;-71
2023/08/08 11:13:41;;;;;;;3.08;1.83;;;;;;;40.94;36.60;99789.41;31612269;28;20048;-74
2023/08/08 11:28:52;;;;;;;2.08;1.70;;;;;;;41.20;34.84;99791.38;31646333;28;20171;-74
2023/08/08 11:43:55;;;;;;;6.65;1.90;;;;;;;38.52;36.71;99783.28;31662779;28;20059;-74
2023/08/08 11:58:59;;;;;;;5.35;1.88;;;;;;;36.53;39.16;99781.78;31664526;28;20475;-75
2023/08/08 12:14:01;;;;;;;3.38;2.10;;;;;;;35.95;39.17;99775.81;31678741;28;20399;-77
2023/08/08 12:29:04;;;;;;;7.28;4.85;;;;;;;35.46;40.33;99776.06;31666710;28;20071;-77
2023/08/08 12:44:07;;;;;;;4.18;1.70;;;;;;;35.24;41.17;99768.84;31664092;28;20056;-77
2023/08/08 12:59:09;;;;;;;2.63;1.55;;;;;;;35.29;40.35;99753.72;31662540;28;20535;-75
2023/08/08 13:14:12;;;;;;;5.78;2.05;;;;;;;34.92;40.95;99744.78;31674505;28;20082;-77
2023/08/08 13:29:14;;;;;;;2.97;1.70;;;;;;;34.91;41.18;99746.13;31640779;28;20059;-76
2023/08/08 13:44:16;;;;;;;2.90;1.77;;;;;;;34.79;40.50;99751.63;31656937;28;20547;-75
2023/08/08 13:59:18;;;;;;;3.88;2.15;;;;;;;34.64;41.06;99737.84;31651793;28;20139;-76
2023/08/08 14:14:20;;;;;;;3.60;1.98;;;;;;;34.64;40.93;99737.84;31664464;28;20087;-76
2023/08/08 14:29:22;;;;;;;4.47;1.45;;;;;;;34.61;41.11;99739.03;31664706;28;20098;-80
2023/08/08 14:44:25;;;;;;;3.75;2.42;;;;;;;34.54;41.44;99740.66;31650302;28;20124;-77
2023/08/08 14:59:29;;;;;;;2.03;1.63;;;;;;;34.38;41.11;99728.22;31664590;28;20044;-76
2023/08/08 15:14:31;;;;;;;3.60;1.70;;;;;;;34.09;41.33;99731.00;31634800;28;20142;-76
2023/08/08 15:29:33;;;;;;;11.82;7.25;;;;;;;33.66;42.07;99734.78;31654821;28;20046;-76
2023/08/08 15:44:34;;;;;;;4.00;1.88;;;;;;;33.30;42.01;99713.81;31659175;28;20047;-76
2023/08/08 15:59:41;;;;;;;4.15;2.15;;;;;;;33.21;42.34;99708.84;31654630;28;20412;-77
2023/08/08 16:14:44;;;;;;;3.17;2.17;;;;;;;33.04;43.07;99700.50;31668590;28;20052;-76
2023/08/08 16:29:46;;;;;;;8.35;3.17;;;;;;;32.81;43.04;99690.34;31658826;28;20051;-75
2023/08/08 16:44:48;;;;;;;19.17;11.32;;;;;;;32.53;43.31;99662.78;31656602;27;20063;-74
2023/08/08 16:59:51;;;;;;;5.25;2.30;;;;;;;32.29;44.87;99683.31;31669889;28;20043;-77
2023/08/08 17:14:54;;;;;;;5.93;1.67;;;;;;;31.99;45.72;99693.53;31650260;28;20464;-76
2023/08/08 17:29:56;;;;;;;8.02;2.42;;;;;;;31.90;46.42;99708.22;31667457;28;20192;-76
2023/08/08 17:44:59;;;;;;;12.18;3.13;;;;;;;31.78;46.86;99684.78;31659681;28;20079;-77
2023/08/08 18:00:01;;;;;;;10.55;4.30;;;;;;;31.66;48.02;99684.53;31677616;28;20130;-77
2023/08/08 18:15:04;;;;;;;8.05;3.83;;;;;;;31.38;49.21;99666.06;31631060;28;20683;-76
2023/08/08 18:30:06;;;;;;;7.90;3.88;;;;;;;30.99;51.64;99659.22;31659321;28;20091;-76
2023/08/08 18:45:09;;;;;;;9.40;4.60;;;;;;;30.94;52.20;99673.50;31655983;28;20134;-76
2023/08/08 19:00:11;;;;;;;11.32;5.30;;;;;;;30.82;52.37;99671.13;31651090;28;20075;-75
2023/08/08 19:15:13;;;;;;;12.65;5.95;;;;;;;30.50;53.52;99685.81;31650025;28;20048;-75
2023/08/08 19:30:15;;;;;;;27.67;17.05;;;;;;;30.45;54.42;99702.84;31641401;28;20133;-77
2023/08/08 19:45:17;;;;;;;8.65;4.07;;;;;;;30.28;55.37;99750.31;31665912;28;20390;-75
2023/08/08 20:00:20;;;;;;;5.00;2.45;;;;;;;29.05;72.86;99916.47;31665420;28;20385;-76
2023/08/08 20:15:22;;;;;;;5.73;2.57;;;;;;;26.97;100.00;99768.69;31666479;28;20109;-75
2023/08/08 20:30:24;;;;;;;5.80;3.25;;;;;;;26.57;100.00;99701.94;31667038;28;20102;-74
2023/08/08 20:45:26;;;;;;;5.25;2.67;;;;;;;26.22;100.00;99682.94;31666452;28;20411;-75
2023/08/08 21:00:28;;;;;;;3.67;2.63;;;;;;;26.32;100.00;99664.53;31675528;28;20054;-75
2023/08/08 21:15:30;;;;;;;4.53;3.38;;;;;;;26.31;100.00;99685.28;31673079;28;20799;-75
2023/08/08 21:30:32;;;;;;;7.35;3.40;;;;;;;26.41;100.00;99695.47;31651179;28;20040;-74
2023/08/08 21:45:35;;;;;;;4.27;3.00;;;;;;;26.43;100.00;99753.34;31658452;28;20051;-76
2023/08/08 22:00:37;;;;;;;6.40;3.30;;;;;;;26.73;100.00;99787.13;31635858;28;20139;-75
2023/08/08 22:15:39;;;;;;;6.60;3.55;;;;;;;26.51;100.00;99756.97;31663511;28;20055;-75
2023/08/08 22:30:41;;;;;;;6.67;4.50;;;;;;;26.31;100.00;99740.94;31662946;28;20079;-76
2023/08/08 22:45:43;;;;;;;6.70;3.80;;;;;;;26.26;100.00;99758.47;31659295;28;20044;-74
2023/08/08 23:00:45;;;;;;;5.30;3.42;;;;;;;25.94;100.00;99764.88;31652523;28;20121;-74
2023/08/08 23:15:47;;;;;;;8.60;6.10;;;;;;;25.73;100.00;99738.97;31649988;28;20044;-75
2023/08/08 23:30:49;;;;;;;10.48;4.25;;;;;;;25.41;100.00;99731.38;31651639;28;20056;-75
2023/08/08 23:45:51;;;;;;;6.28;4.35;;;;;;;25.48;100.00;99753.00;31639529;28;20131;-75
